Pirapemas, Brazil
Current Conditions -  °F | °C
As of 3:00 AM on Thursday 23 Oct 2014 (Local Time) from SBSL Reporting Station
Scattered Clouds Scattered Clouds  
Wind Chill: 79°   Ceiling: Unl
Heat Index: 81°   Visibility: 6mi
Dew Point: 70°   Wind: 9mph
Humidity: 74%   Direction: 80°E
Pressure: 29.85"   Gusts: NA
Location:  3.73°S, 44.22°W
Report Text: SBSL 230600Z 08008KT 9999 SCT020 26/21 Q1011
Loading
Personal Weather Stations






























Interactive Weather Map
Tropical Storm Tracking
New forecast layout! Learn more

10-Day Weather Forecast

Advertisements
Track Severe Weather on mobile